createdAt,value
2022-10-14T00:01:23.262Z,10.73
2022-10-14T00:04:05.552Z,10.70
2022-10-14T00:06:34.997Z,10.61
2022-10-14T00:09:09.037Z,10.53
2022-10-14T00:11:38.418Z,10.45
2022-10-14T00:14:12.470Z,10.38
2022-10-14T00:16:42.882Z,10.38
2022-10-14T00:19:13.286Z,10.37
2022-10-14T00:21:44.652Z,10.36
2022-10-14T00:24:16.144Z,10.37
2022-10-14T00:26:44.516Z,10.37
2022-10-14T00:29:19.025Z,10.34
2022-10-14T00:31:47.664Z,10.33
2022-10-14T00:34:17.377Z,10.31
2022-10-14T00:36:45.745Z,10.24
2022-10-14T00:39:17.586Z,10.21
2022-10-14T00:41:46.153Z,10.22
2022-10-14T00:44:14.447Z,10.21
2022-10-14T00:46:47.815Z,10.13
2022-10-14T00:49:22.152Z,10.03
2022-10-14T00:52:13.671Z,9.99
2022-10-14T00:54:50.406Z,9.98
2022-10-14T00:57:19.898Z,9.99
2022-10-14T00:59:49.194Z,10.00
2022-10-14T01:02:17.334Z,10.03
2022-10-14T01:04:46.688Z,10.08
2022-10-14T01:07:27.258Z,10.06
2022-10-14T01:10:19.137Z,10.03
2022-10-14T01:13:05.340Z,10.03
2022-10-14T01:15:48.559Z,10.04
2022-10-14T01:18:42.567Z,10.05
2022-10-14T01:21:27.753Z,10.03
2022-10-14T01:24:27.005Z,10.02
2022-10-14T01:27:33.222Z,10.05
2022-10-14T01:30:25.252Z,10.09
2022-10-14T01:33:18.119Z,10.15
2022-10-14T01:36:27.626Z,10.19
2022-10-14T01:39:12.747Z,10.16
2022-10-14T01:41:46.661Z,10.16
2022-10-14T01:44:18.926Z,10.20
2022-10-14T01:46:52.795Z,10.22
2022-10-14T01:49:29.662Z,10.22
2022-10-14T01:52:07.669Z,10.26
2022-10-14T01:54:40.943Z,10.27
2022-10-14T01:57:14.396Z,10.28
2022-10-14T01:59:44.493Z,10.31
2022-10-14T02:02:13.794Z,10.36
2022-10-14T02:04:42.369Z,10.40
2022-10-14T02:07:13.891Z,10.43
2022-10-14T02:09:53.567Z,10.45
2022-10-14T02:12:36.194Z,10.49
2022-10-14T02:15:33.760Z,10.50
2022-10-14T02:18:29.671Z,10.49
2022-10-14T02:21:20.265Z,10.46
2022-10-14T02:24:00.483Z,10.44
2022-10-14T02:26:30.572Z,10.44
2022-10-14T02:29:02.004Z,10.44
2022-10-14T02:31:32.701Z,10.41
2022-10-14T02:34:06.019Z,10.41
2022-10-14T02:36:36.768Z,10.42
2022-10-14T02:39:10.051Z,10.44
2022-10-14T02:41:40.106Z,10.45
2022-10-14T02:44:09.751Z,10.48
2022-10-14T02:46:41.434Z,10.53
2022-10-14T02:49:10.995Z,10.59
2022-10-14T02:51:39.377Z,10.65
2022-10-14T02:54:12.649Z,10.67
2022-10-14T02:56:41.303Z,10.71
2022-10-14T02:59:09.565Z,10.75
2022-10-14T03:01:39.389Z,10.73
2022-10-14T03:04:08.938Z,10.67
2022-10-14T03:06:37.708Z,10.68
2022-10-14T03:09:06.122Z,10.69
2022-10-14T03:11:37.019Z,10.69
2022-10-14T03:14:07.548Z,10.67
2022-10-14T03:16:36.603Z,10.64
2022-10-14T03:19:05.256Z,10.56
2022-10-14T03:21:46.905Z,10.50
2022-10-14T03:24:20.142Z,10.47
2022-10-14T03:26:52.422Z,10.40
2022-10-14T03:29:25.623Z,10.41
2022-10-14T03:32:11.254Z,10.29
2022-10-14T03:35:01.594Z,10.19
2022-10-14T03:37:29.968Z,10.17
2022-10-14T03:39:59.315Z,10.22
2022-10-14T03:42:27.946Z,10.28
2022-10-14T03:44:56.705Z,10.33
2022-10-14T03:47:28.829Z,10.38
2022-10-14T03:49:56.901Z,10.43
2022-10-14T03:52:33.977Z,10.49
2022-10-14T03:55:08.697Z,10.53
2022-10-14T03:57:37.502Z,10.55
2022-10-14T04:00:07.825Z,10.56
2022-10-14T04:02:44.982Z,10.57
2022-10-14T04:05:26.440Z,10.55
2022-10-14T04:07:54.581Z,10.53
2022-10-14T04:10:23.219Z,10.47
2022-10-14T04:12:53.941Z,10.41
2022-10-14T04:15:28.278Z,10.36
2022-10-14T04:18:12.693Z,10.34
2022-10-14T04:20:41.553Z,10.31
2022-10-14T04:23:10.318Z,10.27
2022-10-14T04:25:40.720Z,10.25
2022-10-14T04:28:09.128Z,10.23
2022-10-14T04:30:46.434Z,10.23
2022-10-14T04:33:19.563Z,10.21
2022-10-14T04:35:48.580Z,10.21
2022-10-14T04:38:25.253Z,10.23
2022-10-14T04:40:58.167Z,10.24
2022-10-14T04:43:26.808Z,10.24
2022-10-14T04:45:55.155Z,10.25
2022-10-14T04:48:26.756Z,10.27
2022-10-14T04:50:56.762Z,10.28
2022-10-14T04:53:38.074Z,10.28
2022-10-14T04:56:13.731Z,10.28
2022-10-14T04:58:50.411Z,10.29
2022-10-14T05:01:18.836Z,10.22
2022-10-14T05:03:48.733Z,10.20
2022-10-14T05:06:18.202Z,10.21
2022-10-14T05:08:47.182Z,10.24
2022-10-14T05:11:15.382Z,10.24
2022-10-14T05:13:48.783Z,10.20
2022-10-14T05:16:17.094Z,10.15
2022-10-14T05:18:45.805Z,10.16
2022-10-14T05:21:15.519Z,10.21
2022-10-14T05:23:54.765Z,10.27
2022-10-14T05:26:23.335Z,10.33
2022-10-14T05:28:53.264Z,10.33
2022-10-14T05:31:22.236Z,10.35
2022-10-14T05:33:56.779Z,10.36
2022-10-14T05:36:24.994Z,10.29
2022-10-14T05:38:59.008Z,10.26
2022-10-14T05:41:29.499Z,10.27
2022-10-14T05:43:57.871Z,10.24
2022-10-14T05:46:26.606Z,10.17
2022-10-14T05:48:57.645Z,10.18
2022-10-14T05:51:26.736Z,10.19
2022-10-14T05:54:00.532Z,10.21
2022-10-14T05:56:28.941Z,10.19
2022-10-14T05:58:57.827Z,10.19
2022-10-14T06:01:27.656Z,10.21
2022-10-14T06:03:55.801Z,10.18
2022-10-14T06:06:28.741Z,10.15
2022-10-14T06:08:58.643Z,10.16
2022-10-14T06:11:26.947Z,10.23
2022-10-14T06:13:55.363Z,10.22
2022-10-14T06:16:24.155Z,10.19
2022-10-14T06:18:54.447Z,10.20
2022-10-14T06:21:23.432Z,10.26
2022-10-14T06:23:52.138Z,10.38
2022-10-14T06:26:20.227Z,10.48
2022-10-14T06:28:48.553Z,10.59
2022-10-14T06:31:18.893Z,10.72
2022-10-14T06:33:48.021Z,10.83
2022-10-14T06:36:16.579Z,10.82
2022-10-14T06:38:45.074Z,10.88
2022-10-14T06:41:13.440Z,10.99
2022-10-14T06:43:42.064Z,11.11
2022-10-14T06:46:10.957Z,11.17
2022-10-14T06:48:41.731Z,11.24
2022-10-14T06:51:10.332Z,11.31
2022-10-14T06:53:38.775Z,11.38
2022-10-14T06:56:07.614Z,11.46
2022-10-14T06:58:35.913Z,11.53
2022-10-14T07:01:06.751Z,11.60
2022-10-14T07:03:37.097Z,11.66
2022-10-14T07:06:07.423Z,11.71
2022-10-14T07:08:36.336Z,11.78
2022-10-14T07:11:06.426Z,11.85
2022-10-14T07:13:35.604Z,11.88
2022-10-14T07:16:04.947Z,11.88
2022-10-14T07:18:33.880Z,11.78
2022-10-14T07:21:06.378Z,11.76
2022-10-14T07:23:35.161Z,11.83
2022-10-14T07:26:04.397Z,11.93
2022-10-14T07:28:35.903Z,11.94
2022-10-14T07:31:11.498Z,11.94
2022-10-14T07:33:41.399Z,11.87
2022-10-14T07:36:13.593Z,11.84
2022-10-14T07:38:44.848Z,11.96
2022-10-14T07:41:18.835Z,12.18
2022-10-14T07:43:50.531Z,12.37
2022-10-14T07:46:29.537Z,12.45
2022-10-14T07:49:01.300Z,12.59
2022-10-14T07:51:31.472Z,12.62
2022-10-14T07:54:02.112Z,12.66
2022-10-14T07:56:30.763Z,12.67
2022-10-14T07:58:59.444Z,12.76
2022-10-14T08:01:27.737Z,12.89
2022-10-14T08:03:56.233Z,13.09
2022-10-14T08:06:25.352Z,13.19
2022-10-14T08:08:54.423Z,13.27
2022-10-14T08:11:25.919Z,13.45
2022-10-14T08:13:55.598Z,13.57
2022-10-14T08:16:33.273Z,13.71
2022-10-14T08:19:08.481Z,13.84
2022-10-14T08:21:39.963Z,13.93
2022-10-14T08:24:08.892Z,13.98
2022-10-14T08:26:50.246Z,14.01
2022-10-14T08:29:19.362Z,14.00
2022-10-14T08:31:47.804Z,14.07
2022-10-14T08:34:16.490Z,14.08
2022-10-14T08:36:45.267Z,14.12
2022-10-14T08:39:13.852Z,14.17
2022-10-14T08:42:07.430Z,14.32
2022-10-14T08:44:57.293Z,14.32
2022-10-14T08:47:39.554Z,14.43
2022-10-14T08:50:45.053Z,14.56
2022-10-14T08:53:38.913Z,14.66
2022-10-14T08:56:10.087Z,14.70
2022-10-14T08:58:46.546Z,14.77
2022-10-14T09:01:32.959Z,14.69
2022-10-14T09:04:13.429Z,14.70
2022-10-14T09:06:46.151Z,14.69
2022-10-14T09:09:40.518Z,14.64
2022-10-14T09:12:17.164Z,14.54
2022-10-14T09:14:49.856Z,14.52
2022-10-14T09:17:27.536Z,14.59
2022-10-14T09:20:21.128Z,14.68
2022-10-14T09:23:12.455Z,14.76
2022-10-14T09:26:04.712Z,14.82
2022-10-14T09:28:38.592Z,14.90
2022-10-14T09:31:12.273Z,14.92
2022-10-14T09:33:43.097Z,14.89
2022-10-14T09:36:19.115Z,14.88
2022-10-14T09:38:53.509Z,14.85
2022-10-14T09:41:30.932Z,14.80
2022-10-14T09:44:18.801Z,14.73
2022-10-14T09:46:50.159Z,14.60
2022-10-14T09:49:45.907Z,14.49
2022-10-14T09:52:23.386Z,14.43
2022-10-14T09:54:58.878Z,14.43
2022-10-14T09:57:27.938Z,14.48
2022-10-14T10:00:02.420Z,14.63
2022-10-14T10:02:42.405Z,14.69
2022-10-14T10:05:25.468Z,14.74
2022-10-14T10:08:08.158Z,14.71
2022-10-14T10:10:38.199Z,14.76
2022-10-14T10:13:22.584Z,14.82
2022-10-14T10:15:59.806Z,14.84
2022-10-14T10:18:29.159Z,14.92
2022-10-14T10:21:07.183Z,14.98
2022-10-14T10:23:37.066Z,15.01
2022-10-14T10:26:29.338Z,14.99
2022-10-14T10:29:00.573Z,14.93
2022-10-14T10:34:28.146Z,15.00
2022-10-14T10:37:05.688Z,15.02
2022-10-14T10:39:52.079Z,15.10
2022-10-14T10:42:34.633Z,15.20
2022-10-14T10:45:17.359Z,15.24
2022-10-14T10:47:52.879Z,15.23
2022-10-14T10:50:30.916Z,15.25
2022-10-14T10:53:23.188Z,15.27
2022-10-14T10:56:25.428Z,15.29
2022-10-14T10:59:44.328Z,15.30
2022-10-14T11:02:12.870Z,15.34
2022-10-14T11:05:03.599Z,15.34
2022-10-14T11:08:15.137Z,15.43
2022-10-14T11:11:36.902Z,15.39
2022-10-14T11:14:41.365Z,15.31
2022-10-14T11:17:25.629Z,15.19
2022-10-14T11:20:21.315Z,15.09
2022-10-14T11:23:04.931Z,15.05
2022-10-14T11:25:59.226Z,15.10
2022-10-14T11:28:36.497Z,15.18
2022-10-14T11:31:41.275Z,15.23
2022-10-14T11:35:03.656Z,15.28
2022-10-14T11:37:41.358Z,15.27
2022-10-14T11:40:16.623Z,15.17
2022-10-14T11:42:56.233Z,15.13
2022-10-14T11:45:37.177Z,15.14
2022-10-14T11:48:24.229Z,15.07
2022-10-14T11:51:16.229Z,15.01
2022-10-14T11:54:12.665Z,15.00
2022-10-14T11:56:46.962Z,14.98
2022-10-14T11:59:28.944Z,14.99
2022-10-14T12:02:26.409Z,15.01
2022-10-14T12:05:03.010Z,14.99
2022-10-14T12:07:41.236Z,15.01
2022-10-14T12:10:21.953Z,15.02
2022-10-14T12:12:51.696Z,15.02
2022-10-14T12:15:25.541Z,15.02
2022-10-14T12:18:01.107Z,15.00
2022-10-14T12:20:47.859Z,15.09
2022-10-14T12:23:26.736Z,15.10
2022-10-14T12:26:20.071Z,15.07
2022-10-14T12:28:52.781Z,15.11
2022-10-14T12:31:28.883Z,15.24
2022-10-14T12:34:15.839Z,15.33
2022-10-14T12:36:50.785Z,15.42
2022-10-14T12:39:19.622Z,15.45
2022-10-14T12:41:54.871Z,15.49
2022-10-14T12:44:30.516Z,15.51
2022-10-14T12:46:59.295Z,15.49
2022-10-14T12:49:36.233Z,15.46
2022-10-14T12:52:09.431Z,15.36
2022-10-14T12:54:48.973Z,15.26
2022-10-14T12:57:37.342Z,15.24
2022-10-14T13:00:22.425Z,15.25
2022-10-14T13:03:01.569Z,15.28
2022-10-14T13:05:43.810Z,15.33
2022-10-14T13:08:23.889Z,15.35
2022-10-14T13:10:55.300Z,15.35
2022-10-14T13:13:39.086Z,15.39
2022-10-14T13:16:23.712Z,15.45
2022-10-14T13:18:58.065Z,15.55
2022-10-14T13:21:35.492Z,15.63
2022-10-14T13:24:17.188Z,15.75
2022-10-14T13:26:54.632Z,15.88
2022-10-14T13:29:54.823Z,15.96
2022-10-14T13:32:44.322Z,16.03
2022-10-14T13:35:33.889Z,16.08
2022-10-14T13:38:16.454Z,16.02
2022-10-14T13:40:53.006Z,15.94
2022-10-14T13:43:29.891Z,15.86
2022-10-14T13:46:09.808Z,15.75
2022-10-14T13:48:44.191Z,15.65
2022-10-14T13:51:32.048Z,15.61
2022-10-14T13:54:28.523Z,15.55
2022-10-14T13:57:21.935Z,15.46
2022-10-14T14:02:44.428Z,15.32
2022-10-14T14:05:17.713Z,15.28
2022-10-14T14:10:51.399Z,15.21
2022-10-14T14:13:28.509Z,15.19
2022-10-14T14:15:58.519Z,15.19
2022-10-14T14:18:49.524Z,15.20
2022-10-14T14:21:27.786Z,15.20
2022-10-14T14:24:01.804Z,15.22
2022-10-14T14:26:36.966Z,15.24
2022-10-14T14:29:14.654Z,15.26
2022-10-14T14:32:05.456Z,15.28
2022-10-14T14:34:37.375Z,15.30
2022-10-14T14:37:33.910Z,15.29
2022-10-14T14:40:07.798Z,15.29
2022-10-14T14:42:39.756Z,15.28
2022-10-14T14:45:15.074Z,15.27
2022-10-14T14:47:44.096Z,15.27
2022-10-14T14:50:30.154Z,15.27
2022-10-14T14:53:21.224Z,15.26
2022-10-14T14:56:01.264Z,15.26
2022-10-14T14:58:49.682Z,15.24
2022-10-14T15:01:30.722Z,15.22
2022-10-14T15:04:17.326Z,15.23
2022-10-14T15:07:20.824Z,15.23
2022-10-14T15:09:54.770Z,15.25
2022-10-14T15:12:26.143Z,15.29
2022-10-14T15:15:00.181Z,15.29
2022-10-14T15:17:29.849Z,15.29
2022-10-14T15:20:05.290Z,15.26
2022-10-14T15:22:38.322Z,15.20
2022-10-14T15:25:21.744Z,15.13
2022-10-14T15:28:01.053Z,15.00
2022-10-14T15:30:41.382Z,14.86
2022-10-14T15:33:17.336Z,14.71
2022-10-14T15:35:46.956Z,14.57
2022-10-14T15:38:18.563Z,14.45
2022-10-14T15:40:48.620Z,14.33
2022-10-14T15:43:23.585Z,14.19
2022-10-14T15:46:16.324Z,14.05
2022-10-14T15:48:52.554Z,13.90
2022-10-14T15:51:26.007Z,13.77
2022-10-14T15:53:54.360Z,13.67
2022-10-14T15:56:23.272Z,13.58
2022-10-14T15:58:51.668Z,13.51
2022-10-14T16:01:22.707Z,13.44
2022-10-14T16:03:55.275Z,13.38
2022-10-14T16:06:24.744Z,13.31
2022-10-14T16:08:53.297Z,13.27
2022-10-14T16:11:28.161Z,13.23
2022-10-14T16:13:57.016Z,13.23
2022-10-14T16:16:31.966Z,13.22
2022-10-14T16:19:03.573Z,13.18
2022-10-14T16:21:32.275Z,13.10
2022-10-14T16:24:03.091Z,13.01
2022-10-14T16:26:31.429Z,12.89
2022-10-14T16:29:00.486Z,12.78
2022-10-14T16:31:28.845Z,12.68
2022-10-14T16:33:57.079Z,12.57
2022-10-14T16:36:26.537Z,12.45
2022-10-14T16:38:56.332Z,12.34
2022-10-14T16:41:28.125Z,12.26
2022-10-14T16:43:56.335Z,12.18
2022-10-14T16:46:44.761Z,12.11
2022-10-14T16:49:14.809Z,12.06
2022-10-14T16:51:45.125Z,12.02
2022-10-14T16:54:13.473Z,11.98
2022-10-14T16:56:54.109Z,11.93
2022-10-14T16:59:24.666Z,11.87
2022-10-14T17:01:53.189Z,11.82
2022-10-14T17:04:22.585Z,11.79
2022-10-14T17:07:12.589Z,11.76
2022-10-14T17:09:41.244Z,11.70
2022-10-14T17:12:13.695Z,11.63
2022-10-14T17:14:43.061Z,11.57
2022-10-14T17:17:12.664Z,11.51
2022-10-14T17:19:43.021Z,11.46
2022-10-14T17:22:12.360Z,11.39
2022-10-14T17:24:41.167Z,11.29
2022-10-14T17:27:10.947Z,11.19
2022-10-14T17:29:39.381Z,11.12
2022-10-14T17:32:07.698Z,11.07
2022-10-14T17:34:35.993Z,11.02
2022-10-14T17:37:05.570Z,10.95
2022-10-14T17:39:34.087Z,10.89
2022-10-14T17:42:02.294Z,10.84
2022-10-14T17:44:30.491Z,10.80
2022-10-14T17:47:00.527Z,10.76
2022-10-14T17:49:31.328Z,10.73
2022-10-14T17:52:02.387Z,10.71
2022-10-14T17:54:30.576Z,10.69
2022-10-14T17:56:58.605Z,10.67
2022-10-14T17:59:27.572Z,10.67
2022-10-14T18:02:03.682Z,10.67
2022-10-14T18:04:32.910Z,10.64
2022-10-14T18:07:01.681Z,10.60
2022-10-14T18:09:29.622Z,10.57
2022-10-14T18:12:13.378Z,10.55
2022-10-14T18:14:43.012Z,10.51
2022-10-14T18:17:12.612Z,10.47
2022-10-14T18:19:42.050Z,10.41
2022-10-14T18:22:11.407Z,10.34
2022-10-14T18:24:39.791Z,10.30
2022-10-14T18:27:08.484Z,10.26
2022-10-14T18:29:37.671Z,10.23
2022-10-14T18:32:06.518Z,10.20
2022-10-14T18:34:34.882Z,10.18
2022-10-14T18:37:03.248Z,10.18
2022-10-14T18:39:31.775Z,10.18
2022-10-14T18:42:00.022Z,10.19
2022-10-14T18:44:28.266Z,10.18
2022-10-14T18:46:57.040Z,10.16
2022-10-14T18:49:25.049Z,10.15
2022-10-14T18:51:55.380Z,10.14
2022-10-14T18:54:26.157Z,10.13
2022-10-14T18:56:55.853Z,10.10
2022-10-14T18:59:24.213Z,10.07
2022-10-14T19:01:54.006Z,10.05
2022-10-14T19:04:25.560Z,10.02
2022-10-14T19:06:54.430Z,9.99
2022-10-14T19:09:28.816Z,9.95
2022-10-14T19:11:59.176Z,9.90
2022-10-14T19:14:28.961Z,9.85
2022-10-14T19:16:57.329Z,9.79
2022-10-14T19:19:25.243Z,9.72
2022-10-14T19:21:56.398Z,9.67
2022-10-14T19:24:24.605Z,9.62
2022-10-14T19:26:54.358Z,9.58
2022-10-14T19:29:22.768Z,9.55
2022-10-14T19:31:51.282Z,9.51
2022-10-14T19:34:19.718Z,9.49
2022-10-14T19:36:47.697Z,9.48
2022-10-14T19:39:16.924Z,9.47
2022-10-14T19:41:46.694Z,9.46
2022-10-14T19:44:16.676Z,9.45
2022-10-14T19:46:45.417Z,9.44
2022-10-14T19:49:15.238Z,9.44
2022-10-14T19:51:44.117Z,9.42
2022-10-14T19:54:13.657Z,9.41
2022-10-14T19:56:42.273Z,9.40
2022-10-14T19:59:13.705Z,9.40
2022-10-14T20:01:42.627Z,9.38
2022-10-14T20:04:11.739Z,9.36
2022-10-14T20:06:40.525Z,9.33
2022-10-14T20:09:09.315Z,9.29
2022-10-14T20:11:37.909Z,9.25
2022-10-14T20:14:06.248Z,9.19
2022-10-14T20:16:34.697Z,9.13
2022-10-14T20:19:03.492Z,9.07
2022-10-14T20:21:32.013Z,9.03
2022-10-14T20:24:00.322Z,8.99
2022-10-14T20:26:28.548Z,8.96
2022-10-14T20:28:56.700Z,8.94
2022-10-14T20:31:27.654Z,8.92
2022-10-14T20:33:57.111Z,8.89
2022-10-14T20:36:25.131Z,8.88
2022-10-14T20:38:53.297Z,8.89
2022-10-14T20:41:25.156Z,8.88
2022-10-14T20:43:54.688Z,8.89
2022-10-14T20:46:24.774Z,8.88
2022-10-14T20:48:55.319Z,8.88
2022-10-14T20:51:24.685Z,8.88
2022-10-14T20:54:01.906Z,8.88
2022-10-14T20:56:35.036Z,8.90
2022-10-14T20:59:08.263Z,8.90
2022-10-14T21:01:37.972Z,8.88
2022-10-14T21:04:09.609Z,8.85
2022-10-14T21:06:39.075Z,8.80
2022-10-14T21:09:07.976Z,8.72
2022-10-14T21:11:36.345Z,8.65
2022-10-14T21:14:04.720Z,8.58
2022-10-14T21:16:35.153Z,8.51
2022-10-14T21:19:06.905Z,8.45
2022-10-14T21:21:40.754Z,8.40
2022-10-14T21:24:12.331Z,8.37
2022-10-14T21:26:40.842Z,8.33
2022-10-14T21:29:09.196Z,8.31
2022-10-14T21:31:37.318Z,8.28
2022-10-14T21:34:06.597Z,8.27
2022-10-14T21:36:36.461Z,8.26
2022-10-14T21:39:09.931Z,8.26
2022-10-14T21:41:38.878Z,8.24
2022-10-14T21:44:07.398Z,8.24
2022-10-14T21:46:36.017Z,8.24
2022-10-14T21:49:04.054Z,8.22
2022-10-14T21:51:32.939Z,8.22
2022-10-14T21:54:01.060Z,8.20
2022-10-14T21:56:29.604Z,8.18
2022-10-14T21:58:57.886Z,8.14
2022-10-14T22:01:29.011Z,8.10
2022-10-14T22:04:04.057Z,8.05
2022-10-14T22:06:34.877Z,8.00
2022-10-14T22:09:08.906Z,7.96
2022-10-14T22:11:39.918Z,7.93
2022-10-14T22:14:12.504Z,7.90
2022-10-14T22:16:40.991Z,7.89
2022-10-14T22:19:11.336Z,7.88
2022-10-14T22:21:42.215Z,7.87
2022-10-14T22:24:10.465Z,7.88
2022-10-14T22:26:38.916Z,7.89
2022-10-14T22:29:15.450Z,7.89
2022-10-14T22:31:44.319Z,7.89
2022-10-14T22:34:16.171Z,7.89
2022-10-14T22:36:44.884Z,7.88
2022-10-14T22:39:16.338Z,7.87
2022-10-14T22:41:44.407Z,7.85
2022-10-14T22:44:12.852Z,7.82
2022-10-14T22:46:41.247Z,7.77
2022-10-14T22:49:09.688Z,7.74
2022-10-14T22:51:43.328Z,7.71
2022-10-14T22:54:12.150Z,7.64
2022-10-14T22:56:40.787Z,7.59
2022-10-14T22:59:12.002Z,7.51
2022-10-14T23:01:41.964Z,7.43
2022-10-14T23:04:11.886Z,7.40
2022-10-14T23:06:43.744Z,7.38
2022-10-14T23:09:11.940Z,7.37
2022-10-14T23:11:40.247Z,7.36
2022-10-14T23:14:08.656Z,7.35
2022-10-14T23:16:37.070Z,7.35
2022-10-14T23:19:05.937Z,7.35
2022-10-14T23:21:36.744Z,7.36
2022-10-14T23:24:07.996Z,7.38
2022-10-14T23:26:36.887Z,7.40
2022-10-14T23:29:11.715Z,7.41
2022-10-14T23:31:40.974Z,7.40
2022-10-14T23:34:13.948Z,7.39
2022-10-14T23:36:42.311Z,7.37
2022-10-14T23:39:11.173Z,7.34
2022-10-14T23:41:39.575Z,7.31
2022-10-14T23:44:07.625Z,7.28
2022-10-14T23:46:35.818Z,7.23
2022-10-14T23:49:14.332Z,7.17
2022-10-14T23:51:52.138Z,7.09
2022-10-14T23:54:20.145Z,7.01
2022-10-14T23:56:48.339Z,6.94
2022-10-14T23:59:16.784Z,6.87
